createdAt,value
2022-11-25T00:01:20.444Z,13.10
2022-11-25T00:03:49.473Z,12.82
2022-11-25T00:06:18.534Z,10.77
2022-11-25T00:08:49.497Z,9.70
2022-11-25T00:11:18.675Z,8.35
2022-11-25T00:13:47.761Z,9.82
2022-11-25T00:16:17.434Z,13.02
2022-11-25T00:18:46.661Z,12.65
2022-11-25T00:21:15.836Z,10.77
2022-11-25T00:23:44.459Z,11.77
2022-11-25T00:26:14.893Z,13.57
2022-11-25T00:28:44.280Z,10.77
2022-11-25T00:31:14.151Z,12.55
2022-11-25T00:33:43.227Z,11.80
2022-11-25T00:36:16.350Z,15.40
2022-11-25T00:38:45.081Z,14.05
2022-11-25T00:41:32.894Z,13.27
2022-11-25T00:44:19.209Z,13.25
2022-11-25T00:46:47.679Z,15.05
2022-11-25T00:49:16.096Z,15.75
2022-11-25T00:51:44.648Z,13.23
2022-11-25T00:54:13.047Z,14.02
2022-11-25T00:56:42.843Z,17.45
2022-11-25T00:59:11.270Z,13.95
2022-11-25T01:01:39.876Z,12.30
2022-11-25T01:04:08.373Z,10.43
2022-11-25T01:06:37.334Z,12.45
2022-11-25T01:09:05.842Z,11.73
2022-11-25T01:11:34.351Z,10.20
2022-11-25T01:14:04.137Z,11.32
2022-11-25T01:16:32.639Z,11.43
2022-11-25T01:19:01.402Z,14.05
2022-11-25T01:21:30.618Z,13.32
2022-11-25T01:24:00.552Z,9.38
2022-11-25T01:26:29.415Z,10.43
2022-11-25T01:28:58.794Z,7.85
2022-11-25T01:31:29.452Z,9.35
2022-11-25T01:33:58.839Z,9.70
2022-11-25T01:36:27.581Z,11.50
2022-11-25T01:38:57.533Z,9.68
2022-11-25T01:41:26.765Z,11.32
2022-11-25T01:44:08.459Z,11.10
2022-11-25T01:46:47.050Z,10.50
2022-11-25T01:49:18.339Z,14.80
2022-11-25T01:51:49.244Z,9.02
2022-11-25T01:54:19.937Z,10.90
2022-11-25T01:56:50.910Z,12.18
2022-11-25T01:59:19.570Z,13.20
2022-11-25T02:01:49.633Z,10.40
2022-11-25T02:04:19.512Z,11.10
2022-11-25T02:06:50.269Z,11.23
2022-11-25T02:09:20.547Z,16.15
2022-11-25T02:11:49.847Z,13.27
2022-11-25T02:14:20.096Z,11.27
2022-11-25T02:16:50.130Z,12.70
2022-11-25T02:19:22.375Z,12.90
2022-11-25T02:21:53.900Z,8.85
2022-11-25T02:24:25.582Z,9.43
2022-11-25T02:26:55.586Z,10.05
2022-11-25T02:29:24.518Z,12.63
2022-11-25T02:31:53.268Z,8.55
2022-11-25T02:34:21.732Z,9.45
2022-11-25T02:36:50.350Z,10.93
2022-11-25T02:39:19.490Z,10.43
2022-11-25T02:41:51.607Z,9.48
2022-11-25T02:44:21.679Z,10.70
2022-11-25T02:46:50.242Z,10.00
2022-11-25T02:49:18.695Z,8.18
2022-11-25T02:51:47.300Z,11.07
2022-11-25T02:54:16.371Z,9.80
2022-11-25T02:56:44.812Z,10.02
2022-11-25T02:59:13.294Z,12.93
2022-11-25T03:01:43.160Z,10.02
2022-11-25T03:04:11.695Z,9.73
2022-11-25T03:06:40.162Z,7.75
2022-11-25T03:09:12.067Z,10.40
2022-11-25T03:11:58.039Z,9.27
2022-11-25T03:14:26.473Z,8.98
2022-11-25T03:16:56.380Z,7.97
2022-11-25T03:19:24.839Z,9.77
2022-11-25T03:21:53.232Z,7.82
2022-11-25T03:24:21.619Z,8.05
2022-11-25T03:26:50.067Z,9.98
2022-11-25T03:29:18.461Z,9.13
2022-11-25T03:31:46.931Z,7.68
2022-11-25T03:34:16.754Z,8.63
2022-11-25T03:36:45.208Z,10.23
2022-11-25T03:39:13.647Z,9.77
2022-11-25T03:41:42.061Z,7.32
2022-11-25T03:44:10.431Z,9.00
2022-11-25T03:46:38.856Z,8.73
2022-11-25T03:49:07.473Z,8.55
2022-11-25T03:51:37.241Z,9.25
2022-11-25T03:54:05.685Z,10.88
2022-11-25T03:56:34.086Z,9.43
2022-11-25T03:59:02.475Z,10.85
2022-11-25T04:01:30.965Z,13.32
2022-11-25T04:03:59.386Z,10.50
2022-11-25T04:06:27.802Z,10.30
2022-11-25T04:08:57.544Z,11.20
2022-11-25T04:11:46.529Z,8.82
2022-11-25T04:14:13.921Z,10.75
2022-11-25T04:16:42.487Z,10.05
2022-11-25T04:19:10.893Z,10.27
2022-11-25T04:21:39.297Z,13.43
2022-11-25T04:24:09.579Z,11.35
2022-11-25T04:26:37.983Z,10.00
2022-11-25T04:29:06.420Z,11.65
2022-11-25T04:31:34.848Z,12.93
2022-11-25T04:34:03.237Z,11.40
2022-11-25T04:36:31.648Z,14.40
2022-11-25T04:39:00.059Z,10.93
2022-11-25T04:41:29.845Z,10.80
2022-11-25T04:43:58.213Z,9.07
2022-11-25T04:46:28.959Z,14.32
2022-11-25T04:48:57.415Z,12.82
2022-11-25T04:51:25.955Z,11.95
2022-11-25T04:53:54.355Z,11.48
2022-11-25T04:56:23.026Z,13.15
2022-11-25T04:59:10.783Z,12.52
2022-11-25T05:01:39.239Z,12.40
2022-11-25T05:04:07.693Z,12.55
2022-11-25T05:06:36.254Z,12.15
2022-11-25T05:09:04.854Z,10.70
2022-11-25T05:11:33.261Z,11.10
2022-11-25T05:14:02.981Z,8.68
2022-11-25T05:16:31.439Z,11.02
2022-11-25T05:18:59.868Z,11.25
2022-11-25T05:21:28.288Z,16.58
2022-11-25T05:23:57.016Z,17.85
2022-11-25T05:26:25.392Z,14.32
2022-11-25T05:28:53.809Z,14.10
2022-11-25T05:31:23.627Z,15.55
2022-11-25T05:33:52.080Z,11.70
2022-11-25T05:36:20.511Z,11.32
2022-11-25T05:38:51.059Z,12.73
2022-11-25T05:41:19.533Z,14.32
2022-11-25T05:43:48.134Z,11.52
2022-11-25T05:46:16.921Z,14.05
2022-11-25T05:48:46.738Z,12.02
2022-11-25T05:51:15.125Z,11.73
2022-11-25T05:53:43.569Z,15.77
2022-11-25T05:56:12.094Z,24.85
2022-11-25T05:58:40.495Z,25.30
2022-11-25T06:01:09.730Z,19.50
2022-11-25T06:03:38.320Z,21.65
2022-11-25T06:06:08.653Z,21.25
2022-11-25T06:08:38.417Z,25.38
2022-11-25T06:11:08.038Z,27.75
2022-11-25T06:13:36.493Z,25.83
2022-11-25T06:16:09.056Z,36.55
2022-11-25T06:18:37.678Z,38.58
2022-11-25T06:21:06.793Z,33.80
2022-11-25T06:23:36.965Z,29.98
2022-11-25T06:26:06.413Z,27.70
2022-11-25T06:28:35.122Z,28.73
2022-11-25T06:31:07.608Z,27.27
2022-11-25T06:33:38.533Z,27.63
2022-11-25T06:36:07.353Z,30.75
2022-11-25T06:38:37.355Z,22.88
2022-11-25T06:41:06.227Z,16.52
2022-11-25T06:43:34.848Z,21.65
2022-11-25T06:46:04.149Z,23.05
2022-11-25T06:48:32.627Z,16.98
2022-11-25T06:51:01.652Z,21.15
2022-11-25T06:53:30.153Z,24.13
2022-11-25T06:56:10.904Z,23.75
2022-11-25T06:58:39.539Z,25.92
2022-11-25T07:01:09.282Z,19.35
2022-11-25T07:03:37.737Z,19.02
2022-11-25T07:06:06.526Z,19.05
2022-11-25T07:08:35.115Z,17.40
2022-11-25T07:11:07.155Z,17.15
2022-11-25T07:13:36.923Z,18.88
2022-11-25T07:16:05.768Z,15.80
2022-11-25T07:18:34.871Z,14.32
2022-11-25T07:21:04.489Z,15.82
2022-11-25T07:23:33.193Z,18.88
2022-11-25T07:26:04.004Z,22.98
2022-11-25T07:28:32.379Z,15.98
2022-11-25T07:31:23.226Z,17.55
2022-11-25T07:33:53.336Z,17.58
2022-11-25T07:36:22.079Z,20.80
2022-11-25T07:38:50.535Z,18.98
2022-11-25T07:41:20.173Z,19.10
2022-11-25T07:43:49.662Z,27.95
2022-11-25T07:46:26.214Z,30.65
2022-11-25T07:48:55.894Z,24.38
2022-11-25T07:51:25.231Z,21.88
2022-11-25T07:53:53.792Z,24.83
2022-11-25T07:56:22.821Z,26.58
2022-11-25T07:58:51.201Z,31.70
2022-11-25T08:01:21.479Z,36.72
2022-11-25T08:03:50.883Z,32.53
2022-11-25T08:06:20.187Z,24.83
2022-11-25T08:08:49.054Z,27.02
2022-11-25T08:11:18.451Z,25.00
2022-11-25T08:13:46.871Z,20.88
2022-11-25T08:16:16.100Z,16.98
2022-11-25T08:18:46.052Z,23.02
2022-11-25T08:21:15.909Z,23.50
2022-11-25T08:23:47.561Z,24.88
2022-11-25T08:26:17.068Z,22.98
2022-11-25T08:28:46.960Z,26.40
2022-11-25T08:31:16.792Z,18.35
2022-11-25T08:33:46.823Z,14.40
2022-11-25T08:36:15.488Z,16.42
2022-11-25T08:38:44.192Z,18.02
2022-11-25T08:41:13.385Z,18.33
2022-11-25T08:43:42.058Z,16.83
2022-11-25T08:46:11.380Z,15.45
2022-11-25T08:48:39.936Z,16.80
2022-11-25T08:51:11.675Z,17.52
2022-11-25T08:53:40.798Z,17.40
2022-11-25T08:56:09.602Z,15.98
2022-11-25T08:58:38.397Z,25.65
2022-11-25T09:01:07.184Z,16.35
2022-11-25T09:03:35.960Z,19.58
2022-11-25T09:06:04.518Z,15.13
2022-11-25T09:08:34.467Z,17.05
2022-11-25T09:11:02.948Z,12.90
2022-11-25T09:13:37.277Z,14.30
2022-11-25T09:16:05.949Z,12.95
2022-11-25T09:18:35.453Z,11.93
2022-11-25T09:21:08.964Z,12.45
2022-11-25T09:23:39.066Z,11.82
2022-11-25T09:26:08.550Z,12.80
2022-11-25T09:28:37.784Z,13.57
2022-11-25T09:31:10.121Z,12.43
2022-11-25T09:33:38.915Z,14.30
2022-11-25T09:36:07.558Z,14.75
2022-11-25T09:38:42.796Z,19.05
2022-11-25T09:41:38.236Z,23.17
2022-11-25T09:44:28.095Z,18.38
2022-11-25T09:47:01.895Z,19.98
2022-11-25T09:52:05.414Z,14.38
2022-11-25T09:54:37.018Z,14.20
2022-11-25T09:57:13.254Z,14.93
2022-11-25T09:59:44.608Z,15.57
2022-11-25T10:02:18.573Z,14.98
2022-11-25T10:04:49.394Z,12.88
2022-11-25T10:07:20.644Z,13.63
2022-11-25T10:09:49.129Z,15.32
2022-11-25T10:12:26.550Z,14.15
2022-11-25T10:14:57.615Z,15.40
2022-11-25T10:17:33.079Z,13.65
2022-11-25T10:20:04.184Z,14.10
2022-11-25T10:22:34.035Z,15.45
2022-11-25T10:25:04.645Z,16.63
2022-11-25T10:27:40.437Z,23.67
2022-11-25T10:30:15.597Z,24.60
2022-11-25T10:32:47.429Z,23.27
2022-11-25T10:35:23.868Z,51.20
2022-11-25T10:37:55.343Z,18.50
2022-11-25T10:40:24.261Z,10.73
2022-11-25T10:42:54.222Z,12.05
2022-11-25T10:45:24.737Z,11.98
2022-11-25T10:48:01.500Z,16.50
2022-11-25T10:50:34.775Z,13.57
2022-11-25T10:53:05.302Z,11.48
2022-11-25T10:55:34.714Z,11.57
2022-11-25T10:58:21.331Z,11.43
2022-11-25T11:00:49.904Z,14.10
2022-11-25T11:03:23.507Z,12.63
2022-11-25T11:05:52.912Z,14.35
2022-11-25T11:08:22.912Z,14.15
2022-11-25T11:11:12.535Z,15.82
2022-11-25T11:13:42.705Z,13.35
2022-11-25T11:16:23.852Z,13.73
2022-11-25T11:18:52.421Z,18.95
2022-11-25T11:21:25.124Z,21.52
2022-11-25T11:23:54.168Z,87.13
2022-11-25T11:26:26.449Z,39.13
2022-11-25T11:29:13.882Z,31.52
2022-11-25T11:31:46.373Z,18.17
2022-11-25T11:34:28.473Z,17.23
2022-11-25T11:37:03.055Z,17.90
2022-11-25T11:39:39.656Z,15.38
2022-11-25T11:42:11.571Z,21.15
2022-11-25T11:44:45.726Z,28.25
2022-11-25T11:47:18.257Z,38.88
2022-11-25T11:49:53.224Z,25.75
2022-11-25T11:52:26.742Z,17.67
2022-11-25T11:54:56.219Z,14.95
2022-11-25T11:57:31.199Z,19.15
2022-11-25T12:00:04.745Z,14.90
2022-11-25T12:02:37.837Z,15.77
2022-11-25T12:05:16.226Z,16.73
2022-11-25T12:07:48.800Z,30.67
2022-11-25T12:10:21.870Z,19.45
2022-11-25T12:12:52.121Z,19.75
2022-11-25T12:15:24.807Z,17.17
2022-11-25T12:17:55.380Z,19.15
2022-11-25T12:20:29.012Z,22.10
2022-11-25T12:23:00.619Z,17.38
2022-11-25T12:25:32.048Z,16.48
2022-11-25T12:28:03.526Z,16.20
2022-11-25T12:30:36.357Z,14.88
2022-11-25T12:33:07.583Z,14.32
2022-11-25T12:35:40.485Z,14.52
2022-11-25T12:38:14.998Z,17.57
2022-11-25T12:40:47.498Z,14.88
2022-11-25T12:43:24.162Z,14.50
2022-11-25T12:46:02.697Z,15.07
2022-11-25T12:48:31.288Z,22.58
2022-11-25T12:51:04.809Z,16.08
2022-11-25T12:53:38.521Z,15.00
2022-11-25T12:56:13.127Z,13.13
2022-11-25T12:58:51.130Z,19.33
2022-11-25T13:01:38.517Z,24.42
2022-11-25T13:04:28.315Z,21.27
2022-11-25T13:07:11.643Z,31.90
2022-11-25T13:09:51.905Z,20.10
2022-11-25T13:12:28.785Z,20.27
2022-11-25T13:15:06.478Z,20.13
2022-11-25T13:17:40.942Z,17.42
2022-11-25T13:20:28.059Z,16.95
2022-11-25T13:23:03.006Z,16.02
2022-11-25T13:25:31.475Z,16.52
2022-11-25T13:28:00.396Z,18.95
2022-11-25T13:30:39.231Z,19.52
2022-11-25T13:33:26.246Z,17.10
2022-11-25T13:35:56.522Z,17.63
2022-11-25T13:38:49.124Z,22.60
2022-11-25T13:41:25.321Z,14.95
2022-11-25T13:43:54.448Z,15.93
2022-11-25T13:46:29.536Z,18.17
2022-11-25T13:48:58.209Z,21.52
2022-11-25T13:51:28.089Z,20.95
2022-11-25T13:53:57.801Z,19.95
2022-11-25T13:56:30.815Z,16.30
2022-11-25T13:59:17.709Z,14.90
2022-11-25T14:01:54.729Z,13.10
2022-11-25T14:04:32.947Z,14.98
2022-11-25T14:07:07.815Z,14.30
2022-11-25T14:09:41.314Z,15.45
2022-11-25T14:12:19.343Z,16.15
2022-11-25T14:14:56.295Z,18.20
2022-11-25T14:17:32.068Z,18.73
2022-11-25T14:20:08.435Z,21.08
2022-11-25T14:22:45.389Z,20.40
2022-11-25T14:25:17.064Z,20.50
2022-11-25T14:27:48.004Z,17.80
2022-11-25T14:30:17.198Z,16.70
2022-11-25T14:32:49.618Z,16.80
2022-11-25T14:35:21.575Z,16.38
2022-11-25T14:37:52.375Z,18.33
2022-11-25T14:40:23.384Z,15.82
2022-11-25T14:42:54.079Z,17.35
2022-11-25T14:45:23.735Z,17.15
2022-11-25T14:47:52.237Z,18.17
2022-11-25T14:50:36.768Z,21.73
2022-11-25T14:53:09.569Z,15.02
2022-11-25T14:55:38.746Z,13.52
2022-11-25T14:58:07.249Z,13.35
2022-11-25T15:00:35.749Z,14.63
2022-11-25T15:03:06.549Z,13.35
2022-11-25T15:05:36.265Z,11.88
2022-11-25T15:08:06.060Z,13.40
2022-11-25T15:10:44.465Z,22.85
2022-11-25T15:13:22.926Z,14.95
2022-11-25T15:15:51.694Z,24.30
2022-11-25T15:18:21.350Z,23.20
2022-11-25T15:20:51.038Z,19.55
2022-11-25T15:23:25.254Z,21.70
2022-11-25T15:25:55.528Z,20.35
2022-11-25T15:28:23.988Z,19.73
2022-11-25T15:31:00.237Z,39.70
2022-11-25T15:33:30.152Z,32.63
2022-11-25T15:35:58.775Z,47.75
2022-11-25T15:38:42.129Z,52.05
2022-11-25T15:41:19.885Z,32.90
2022-11-25T15:43:49.243Z,26.25
2022-11-25T15:46:18.873Z,21.27
2022-11-25T15:48:48.120Z,20.67
2022-11-25T15:51:23.147Z,20.42
2022-11-25T15:53:54.299Z,19.45
2022-11-25T15:56:25.879Z,19.58
2022-11-25T15:59:00.126Z,22.15
2022-11-25T16:01:30.629Z,14.52
2022-11-25T16:04:11.366Z,18.52
2022-11-25T16:06:53.732Z,15.45
2022-11-25T16:09:22.745Z,15.98
2022-11-25T16:11:52.802Z,15.38
2022-11-25T16:14:26.976Z,13.20
2022-11-25T16:16:57.290Z,13.48
2022-11-25T16:19:28.493Z,13.20
2022-11-25T16:22:00.741Z,15.27
2022-11-25T16:24:37.047Z,16.70
2022-11-25T16:27:08.575Z,19.50
2022-11-25T16:29:39.347Z,25.38
2022-11-25T16:32:15.466Z,27.50
2022-11-25T16:34:44.347Z,26.30
2022-11-25T16:37:12.827Z,25.15
2022-11-25T16:39:41.310Z,27.48
2022-11-25T16:42:18.001Z,45.40
2022-11-25T16:44:48.674Z,43.60
2022-11-25T16:47:17.373Z,40.58
2022-11-25T16:49:46.574Z,33.28
2022-11-25T16:52:15.163Z,30.02
2022-11-25T16:54:46.049Z,35.38
2022-11-25T16:57:19.294Z,29.83
2022-11-25T16:59:51.033Z,31.10
2022-11-25T17:04:50.870Z,25.08
2022-11-25T17:07:35.714Z,24.63
2022-11-25T17:10:05.129Z,22.27
2022-11-25T17:12:36.107Z,21.55
2022-11-25T17:15:06.763Z,27.10
2022-11-25T17:17:35.948Z,21.77
2022-11-25T17:20:04.499Z,22.45
2022-11-25T17:22:39.038Z,24.40
2022-11-25T17:25:08.276Z,25.75
2022-11-25T17:27:38.237Z,24.08
2022-11-25T17:30:08.355Z,28.40
2022-11-25T17:32:37.638Z,26.50
2022-11-25T17:35:06.374Z,19.70
2022-11-25T17:37:34.877Z,24.25
2022-11-25T17:40:03.945Z,23.02
2022-11-25T17:42:33.768Z,22.50
2022-11-25T17:45:03.633Z,19.63
2022-11-25T17:47:32.121Z,24.67
2022-11-25T17:50:00.826Z,23.38
2022-11-25T17:52:29.297Z,23.48
2022-11-25T17:54:57.745Z,24.30
2022-11-25T17:57:29.270Z,23.80
2022-11-25T17:59:57.822Z,32.45
2022-11-25T18:02:27.758Z,45.05
2022-11-25T18:04:56.256Z,45.65
2022-11-25T18:07:25.865Z,39.33
2022-11-25T18:09:54.367Z,40.53
2022-11-25T18:12:26.997Z,33.78
2022-11-25T18:14:55.512Z,35.00
2022-11-25T18:17:24.064Z,33.50
2022-11-25T18:19:55.488Z,33.90
2022-11-25T18:22:24.820Z,26.25
2022-11-25T18:24:53.743Z,23.55
2022-11-25T18:27:24.031Z,24.88
2022-11-25T18:29:53.026Z,29.00
2022-11-25T18:32:22.785Z,24.45
2022-11-25T18:34:51.793Z,29.63
2022-11-25T18:37:21.732Z,35.67
2022-11-25T18:39:50.210Z,33.25
2022-11-25T18:42:22.928Z,33.10
2022-11-25T18:44:51.453Z,23.65
2022-11-25T18:47:20.069Z,33.17
2022-11-25T18:49:53.814Z,38.72
2022-11-25T18:52:25.623Z,51.90
2022-11-25T18:54:54.252Z,33.15
2022-11-25T18:57:22.978Z,30.58
2022-11-25T19:00:24.905Z,31.30
2022-11-25T19:02:40.180Z,29.05
2022-11-25T19:05:18.017Z,29.98
2022-11-25T19:07:50.721Z,25.63
2022-11-25T19:10:19.682Z,22.05
2022-11-25T19:12:50.010Z,24.75
2022-11-25T19:15:20.942Z,25.23
2022-11-25T19:17:51.145Z,22.30
2022-11-25T19:20:20.883Z,21.90
2022-11-25T19:22:51.607Z,20.73
2022-11-25T19:25:20.400Z,19.17
2022-11-25T19:27:51.670Z,19.08
2022-11-25T19:30:22.063Z,21.33
2022-11-25T19:32:52.379Z,18.50
2022-11-25T19:35:22.622Z,18.35
2022-11-25T19:37:52.509Z,16.60
2022-11-25T19:40:22.810Z,19.17
2022-11-25T19:42:51.328Z,20.13
2022-11-25T19:45:20.571Z,17.75
2022-11-25T19:47:50.542Z,52.10
2022-11-25T19:50:22.201Z,35.80
2022-11-25T19:52:52.388Z,37.53
2022-11-25T19:55:21.803Z,30.05
2022-11-25T19:57:50.638Z,46.22
2022-11-25T20:00:20.186Z,16.75
2022-11-25T20:02:49.137Z,18.88
2022-11-25T20:05:19.313Z,31.95
2022-11-25T20:07:53.826Z,37.90
2022-11-25T20:10:24.094Z,30.20
2022-11-25T20:12:53.119Z,29.10
2022-11-25T20:15:21.842Z,24.00
2022-11-25T20:17:51.709Z,19.75
2022-11-25T20:20:21.617Z,24.70
2022-11-25T20:22:55.823Z,27.40
2022-11-25T20:25:27.552Z,27.17
2022-11-25T20:28:05.217Z,31.00
2022-11-25T20:30:33.771Z,32.28
2022-11-25T20:33:02.356Z,47.10
2022-11-25T20:35:30.851Z,26.23
2022-11-25T20:38:01.387Z,20.50
2022-11-25T20:40:33.608Z,18.13
2022-11-25T20:43:02.291Z,24.83
2022-11-25T20:45:30.821Z,30.15
2022-11-25T20:47:59.441Z,30.90
2022-11-25T20:50:31.016Z,25.05
2022-11-25T20:53:00.872Z,25.90
2022-11-25T20:55:29.516Z,27.38
2022-11-25T20:57:58.073Z,31.73
2022-11-25T21:00:27.377Z,29.60
2022-11-25T21:02:57.453Z,35.28
2022-11-25T21:05:25.972Z,30.95
2022-11-25T21:07:55.329Z,32.35
2022-11-25T21:10:26.778Z,30.80
2022-11-25T21:12:55.555Z,29.13
2022-11-25T21:15:24.808Z,30.35
2022-11-25T21:17:53.505Z,27.27
2022-11-25T21:20:22.167Z,24.58
2022-11-25T21:22:53.453Z,27.65
2022-11-25T21:25:23.392Z,30.05
2022-11-25T21:27:53.529Z,29.95
2022-11-25T21:30:23.120Z,30.88
2022-11-25T21:32:53.818Z,28.35
2022-11-25T21:35:22.541Z,29.52
2022-11-25T21:37:51.024Z,30.95
2022-11-25T21:40:25.361Z,27.65
2022-11-25T21:42:55.215Z,24.92
2022-11-25T21:45:26.232Z,27.50
2022-11-25T21:47:54.745Z,27.33
2022-11-25T21:50:23.683Z,26.98
2022-11-25T21:52:52.112Z,41.47
2022-11-25T21:55:20.645Z,45.47
2022-11-25T21:57:49.093Z,42.92
2022-11-25T22:00:24.225Z,42.95
2022-11-25T22:02:52.976Z,39.17
2022-11-25T22:05:22.368Z,38.75
2022-11-25T22:07:50.984Z,37.10
2022-11-25T22:10:19.918Z,35.05
2022-11-25T22:12:49.523Z,29.42
2022-11-25T22:15:19.829Z,24.67
2022-11-25T22:17:49.790Z,29.55
2022-11-25T22:20:28.584Z,29.60
2022-11-25T22:22:57.184Z,30.67
2022-11-25T22:25:27.172Z,27.50
2022-11-25T22:27:55.725Z,31.05
2022-11-25T22:30:24.831Z,28.58
2022-11-25T22:32:59.737Z,28.50
2022-11-25T22:35:28.356Z,29.65
2022-11-25T22:37:56.828Z,28.65
2022-11-25T22:40:26.001Z,30.10
2022-11-25T22:42:56.479Z,29.88
2022-11-25T22:45:28.496Z,28.90
2022-11-25T22:47:58.866Z,28.50
2022-11-25T22:50:28.569Z,25.83
2022-11-25T22:52:57.898Z,23.42
2022-11-25T22:55:27.882Z,18.55
2022-11-25T22:57:57.224Z,20.45
2022-11-25T23:00:26.993Z,21.73
2022-11-25T23:02:57.351Z,19.25
2022-11-25T23:05:32.675Z,19.63
2022-11-25T23:08:02.303Z,18.33
2022-11-25T23:10:31.838Z,17.63
2022-11-25T23:13:00.381Z,20.17
2022-11-25T23:15:28.955Z,20.63
2022-11-25T23:17:58.573Z,16.95
2022-11-25T23:20:31.073Z,24.05
2022-11-25T23:22:59.886Z,26.02
2022-11-25T23:25:28.417Z,26.63
2022-11-25T23:27:56.930Z,25.65
2022-11-25T23:30:25.918Z,25.55
2022-11-25T23:32:55.308Z,27.63
2022-11-25T23:35:26.893Z,26.85
2022-11-25T23:37:57.557Z,23.48
2022-11-25T23:40:27.034Z,25.75
2022-11-25T23:42:55.612Z,21.75
2022-11-25T23:45:24.885Z,20.77
2022-11-25T23:47:54.543Z,22.25
2022-11-25T23:50:29.144Z,24.20
2022-11-25T23:53:01.300Z,26.83
2022-11-25T23:55:34.046Z,24.35
2022-11-25T23:58:03.197Z,28.13
